Time;durP1;ratioP1;P1;durP2;ratioP2;P2;SDS_P1;SDS_P2;PMS_P1;PMS_P2;Temp;Humidity;BMP_temperature;BMP_pressure;BME280_temperature;BME280_humidity;BME280_pressure;Samples;Min_cycle;Max_cycle;Signal;HPM_P1;HPM_P2
2021/07/29 00:03:48;;;;;;;4.47;1.10;;;20.20;69.90;;;;;;10536209;28;20207;-23
2021/07/29 00:09:11;;;;;;;3.30;1.50;;;20.20;70.30;;;;;;10535681;28;20578;-24
2021/07/29 00:14:33;;;;;;;4.77;1.63;;;20.10;70.60;;;;;;10536119;28;20225;-24
2021/07/29 00:19:56;;;;;;;5.97;1.60;;;20.10;70.50;;;;;;10532566;28;20223;-23
2021/07/29 00:25:19;;;;;;;2.70;1.63;;;20.20;70.90;;;;;;10452602;28;20189;-23
2021/07/29 00:30:42;;;;;;;3.33;1.80;;;20.20;70.90;;;;;;10470708;28;20223;-22
2021/07/29 00:36:05;;;;;;;3.60;1.60;;;20.20;71.00;;;;;;10492905;28;20207;-23
2021/07/29 00:41:28;;;;;;;4.23;1.53;;;20.20;71.40;;;;;;10488844;28;20223;-25
2021/07/29 00:46:50;;;;;;;2.73;1.70;;;20.10;71.70;;;;;;10491872;28;20200;-23
2021/07/29 00:52:14;;;;;;;4.40;1.73;;;20.10;71.20;;;;;;10491858;28;20220;-23
2021/07/29 00:57:38;;;;;;;3.10;2.00;;;20.00;71.50;;;;;;10488426;28;20237;-23
2021/07/29 01:03:01;;;;;;;2.50;1.67;;;20.00;71.70;;;;;;10492220;28;20250;-25
2021/07/29 01:08:23;;;;;;;2.87;2.03;;;20.00;72.00;;;;;;10493508;28;20216;-24
2021/07/29 01:13:46;;;;;;;4.53;2.03;;;20.00;72.80;;;;;;10491874;28;20678;-25
2021/07/29 01:19:10;;;;;;;3.23;1.87;;;20.00;72.40;;;;;;10510323;28;20639;-25
2021/07/29 01:24:33;;;;;;;2.47;1.70;;;20.00;72.50;;;;;;10495554;28;20200;-24
2021/07/29 01:29:55;;;;;;;2.07;1.77;;;20.00;72.70;;;;;;10492258;28;20225;-23
2021/07/29 01:35:17;;;;;;;3.07;2.10;;;20.00;72.70;;;;;;10521108;28;20200;-23
2021/07/29 01:40:40;;;;;;;3.70;2.20;;;20.00;72.60;;;;;;10541158;28;20687;-24
2021/07/29 01:46:03;;;;;;;4.30;2.00;;;20.00;72.60;;;;;;10541612;28;20658;-26
2021/07/29 01:51:25;;;;;;;2.93;2.17;;;20.00;72.60;;;;;;10541179;28;20215;-23
2021/07/29 01:56:48;;;;;;;3.20;1.80;;;20.00;72.10;;;;;;10539684;28;20195;-23
2021/07/29 02:02:10;;;;;;;1.73;1.63;;;20.00;72.10;;;;;;10540563;28;20211;-25
2021/07/29 02:07:32;;;;;;;3.33;2.30;;;20.00;71.80;;;;;;10540752;28;20210;-24
2021/07/29 02:12:56;;;;;;;2.83;2.07;;;20.00;71.80;;;;;;10540497;28;20693;-24
2021/07/29 02:18:18;;;;;;;4.47;2.30;;;20.00;71.80;;;;;;10529424;28;20236;-24
2021/07/29 02:23:40;;;;;;;2.40;1.90;;;20.00;72.20;;;;;;10498825;28;20664;-24
2021/07/29 02:29:04;;;;;;;4.50;1.60;;;20.00;71.30;;;;;;10492808;28;20236;-23
2021/07/29 02:34:26;;;;;;;2.13;1.67;;;20.00;71.30;;;;;;10493009;28;20220;-24
2021/07/29 02:39:48;;;;;;;2.13;1.90;;;20.00;71.10;;;;;;10504659;28;20220;-24
2021/07/29 02:45:12;;;;;;;4.60;1.80;;;20.00;70.90;;;;;;10495290;28;20193;-24
2021/07/29 02:50:34;;;;;;;2.73;1.73;;;20.00;70.40;;;;;;10497084;28;20227;-23
2021/07/29 02:55:57;;;;;;;3.83;1.60;;;19.90;70.60;;;;;;10493120;28;20208;-23
2021/07/29 03:01:21;;;;;;;1.57;1.37;;;19.90;70.20;;;;;;10487309;28;20209;-23
2021/07/29 03:06:43;;;;;;;2.73;1.50;;;19.90;69.60;;;;;;10496696;28;20278;-23
2021/07/29 03:12:05;;;;;;;2.17;1.67;;;19.90;69.40;;;;;;10497934;28;20221;-23
2021/07/29 03:17:29;;;;;;;3.60;1.47;;;19.90;69.50;;;;;;10495645;28;20698;-23
2021/07/29 03:22:51;;;;;;;3.40;1.80;;;20.00;69.20;;;;;;10495343;28;20610;-23
2021/07/29 03:28:13;;;;;;;3.20;1.80;;;19.90;69.60;;;;;;10495150;28;20584;-23
2021/07/29 03:33:37;;;;;;;2.87;1.80;;;19.90;69.90;;;;;;10490004;28;20225;-25
2021/07/29 03:38:59;;;;;;;2.20;1.70;;;19.90;69.90;;;;;;10494122;28;20715;-23
2021/07/29 03:44:21;;;;;;;2.67;1.60;;;19.90;69.90;;;;;;10516868;28;20223;-24
2021/07/29 03:49:45;;;;;;;1.73;1.53;;;19.80;70.10;;;;;;10536220;28;20239;-21
2021/07/29 03:55:08;;;;;;;2.23;1.60;;;19.90;69.90;;;;;;10512102;28;20223;-23
2021/07/29 04:00:30;;;;;;;2.90;1.70;;;19.80;70.30;;;;;;10535268;28;20576;-23
2021/07/29 04:05:53;;;;;;;2.70;1.63;;;19.80;70.30;;;;;;10535930;28;20188;-23
2021/07/29 04:11:15;;;;;;;2.57;1.63;;;19.80;70.50;;;;;;10495010;28;20220;-24
2021/07/29 04:16:37;;;;;;;2.80;1.80;;;19.80;70.80;;;;;;10493989;28;20211;-24
2021/07/29 04:22:01;;;;;;;3.63;1.53;;;19.80;71.00;;;;;;10493568;28;20212;-23
2021/07/29 04:27:23;;;;;;;3.73;1.67;;;19.80;71.50;;;;;;10493141;28;20227;-24
2021/07/29 04:32:46;;;;;;;2.30;1.50;;;19.80;71.30;;;;;;10485167;28;20228;-23
2021/07/29 04:38:09;;;;;;;2.23;1.53;;;19.80;71.50;;;;;;10495119;28;20192;-23
2021/07/29 04:43:31;;;;;;;2.63;2.00;;;19.80;71.70;;;;;;10534894;28;20559;-25
2021/07/29 04:48:53;;;;;;;2.23;1.40;;;19.80;72.50;;;;;;10534278;28;20226;-24
2021/07/29 04:54:17;;;;;;;4.80;2.30;;;19.80;72.20;;;;;;10534430;28;20587;-23
2021/07/29 04:59:40;;;;;;;2.90;1.73;;;19.80;72.20;;;;;;10534384;28;20560;-23
2021/07/29 05:05:03;;;;;;;3.30;1.80;;;19.80;72.50;;;;;;10509312;28;20196;-24
2021/07/29 05:10:26;;;;;;;3.07;1.90;;;19.80;72.10;;;;;;10490873;28;20220;-24
2021/07/29 05:15:48;;;;;;;3.33;1.60;;;19.80;71.80;;;;;;10460695;28;20672;-22
2021/07/29 05:21:10;;;;;;;2.87;1.70;;;19.80;72.00;;;;;;10468297;28;20216;-23
2021/07/29 05:26:34;;;;;;;3.07;1.90;;;19.90;71.80;;;;;;10500001;28;20204;-24
2021/07/29 05:31:56;;;;;;;2.50;1.50;;;19.90;71.50;;;;;;10499597;28;20637;-25
2021/07/29 05:37:18;;;;;;;2.03;1.40;;;19.90;71.70;;;;;;10499630;28;20240;-23
2021/07/29 05:42:41;;;;;;;2.60;1.80;;;19.90;71.50;;;;;;10533810;28;20597;-23
2021/07/29 05:48:04;;;;;;;4.37;2.07;;;19.90;71.20;;;;;;10534144;23;20200;-71
2021/07/29 05:53:10;;;;;;;2.30;1.50;;;19.90;71.30;;;;;;10380458;22;20316;-35
2021/07/29 05:58:33;;;;;;;2.00;1.60;;;19.90;71.10;;;;;;10387164;28;20222;-34
2021/07/29 06:03:55;;;;;;;2.90;1.60;;;19.90;71.00;;;;;;10417155;28;20190;-35
2021/07/29 06:09:17;;;;;;;2.87;1.50;;;19.90;71.20;;;;;;10415078;28;20253;-37
2021/07/29 06:14:41;;;;;;;3.07;1.57;;;19.90;71.30;;;;;;10409767;28;20712;-37
2021/07/29 06:20:06;;;;;;;4.80;1.87;;;20.00;71.10;;;;;;10396449;28;20256;-37
2021/07/29 06:25:28;;;;;;;3.03;1.80;;;20.00;70.60;;;;;;10401793;28;20206;-33
2021/07/29 06:30:51;;;;;;;2.93;1.60;;;20.00;70.30;;;;;;10397070;28;20229;-36
2021/07/29 06:36:13;;;;;;;3.67;1.70;;;20.00;70.30;;;;;;10411694;28;20686;-33
2021/07/29 06:41:35;;;;;;;5.87;2.07;;;20.00;70.00;;;;;;10396488;28;20229;-35
2021/07/29 06:46:59;;;;;;;3.93;1.93;;;20.00;69.70;;;;;;10414252;28;20538;-33
2021/07/29 06:52:21;;;;;;;3.57;1.77;;;20.10;69.30;;;;;;10412872;28;20570;-34
2021/07/29 06:57:43;;;;;;;4.00;1.77;;;20.20;69.50;;;;;;10413984;28;20197;-36
2021/07/29 07:03:06;;;;;;;4.33;1.57;;;20.20;68.90;;;;;;10436802;28;20405;-36
2021/07/29 07:08:29;;;;;;;4.73;1.67;;;20.20;68.30;;;;;;10414347;28;20225;-33
2021/07/29 07:13:52;;;;;;;2.83;1.63;;;20.20;69.10;;;;;;10396755;28;20225;-36
2021/07/29 07:19:15;;;;;;;3.33;1.67;;;20.30;69.30;;;;;;10398608;28;20578;-33
2021/07/29 07:24:37;;;;;;;4.27;1.77;;;20.30;67.70;;;;;;10409277;28;20564;-34
2021/07/29 07:29:59;;;;;;;6.93;1.73;;;20.30;66.70;;;;;;10411453;28;20221;-33
2021/07/29 07:35:22;;;;;;;3.63;1.77;;;20.30;67.20;;;;;;10412429;28;20224;-35
2021/07/29 07:40:45;;;;;;;6.03;2.23;;;20.30;67.00;;;;;;10411411;28;20225;-33
2021/07/29 07:46:07;;;;;;;7.57;1.90;;;20.30;66.40;;;;;;10412641;28;20201;-32
2021/07/29 07:51:30;;;;;;;4.07;1.67;;;20.30;66.20;;;;;;10410477;28;20228;-33
2021/07/29 07:56:52;;;;;;;5.67;2.17;;;20.40;68.00;;;;;;10409205;28;20194;-36
2021/07/29 08:02:14;;;;;;;2.57;1.63;;;20.50;68.60;;;;;;10403227;28;20226;-39
2021/07/29 08:07:38;;;;;;;6.37;1.63;;;20.40;68.10;;;;;;10371205;28;20598;-33
2021/07/29 08:13:00;;;;;;;6.60;1.90;;;20.50;67.20;;;;;;10371116;28;20218;-33
2021/07/29 08:18:22;;;;;;;5.77;1.90;;;20.40;67.00;;;;;;10408645;28;20189;-33
2021/07/29 08:23:45;;;;;;;5.63;1.90;;;20.50;67.70;;;;;;10406677;28;21001;-36
2021/07/29 08:29:07;;;;;;;4.87;1.60;;;20.50;67.70;;;;;;10399964;28;20711;-36
2021/07/29 08:34:29;;;;;;;4.20;1.80;;;20.50;67.60;;;;;;10408216;28;20716;-36
2021/07/29 08:39:56;;;;;;;4.37;1.63;;;20.50;67.40;;;;;;10410319;28;20221;-33
2021/07/29 08:45:18;;;;;;;5.27;2.00;;;20.50;67.70;;;;;;10409138;28;20190;-33
2021/07/29 08:50:40;;;;;;;4.17;2.07;;;20.60;67.60;;;;;;10408621;28;20233;-35
2021/07/29 08:56:04;;;;;;;4.27;1.83;;;20.50;67.50;;;;;;10410102;28;20214;-33
2021/07/29 09:01:40;;;;;;;2.67;1.67;;;20.60;68.50;;;;;;10382047;28;20579;-35
2021/07/29 09:07:03;;;;;;;4.97;2.00;;;20.60;68.20;;;;;;10392564;28;20202;-34
2021/07/29 09:12:27;;;;;;;4.03;1.80;;;20.60;68.70;;;;;;10368648;28;20305;-34
2021/07/29 09:17:49;;;;;;;4.13;1.70;;;20.60;69.20;;;;;;10394572;28;20225;-34
2021/07/29 09:23:18;;;;;;;4.73;1.87;;;20.70;70.10;;;;;;10396191;28;20194;-36
2021/07/29 09:28:42;;;;;;;5.37;2.00;;;20.70;70.30;;;;;;10408345;28;20229;-32
2021/07/29 09:34:04;;;;;;;5.30;1.73;;;20.70;69.10;;;;;;10407963;28;20232;-36
2021/07/29 09:39:26;;;;;;;3.47;1.60;;;20.70;69.20;;;;;;10407591;28;20224;-38
2021/07/29 09:44:52;;;;;;;3.80;1.80;;;20.70;69.30;;;;;;10403496;28;20198;-35
2021/07/29 09:50:14;;;;;;;2.03;1.47;;;20.70;69.20;;;;;;10403854;28;20277;-36
2021/07/29 09:55:36;;;;;;;3.90;1.63;;;20.70;68.80;;;;;;10407421;28;20703;-36
2021/07/29 10:01:00;;;;;;;7.17;1.80;;;20.70;69.00;;;;;;10371506;28;20218;-33
2021/07/29 10:06:23;;;;;;;6.43;1.40;;;20.70;68.80;;;;;;10389030;28;20511;-35
2021/07/29 10:11:48;;;;;;;4.53;1.43;;;20.70;68.70;;;;;;10414544;28;20224;-36
2021/07/29 10:17:11;;;;;;;7.23;1.83;;;20.70;69.00;;;;;;10431663;28;20201;-38
2021/07/29 10:22:33;;;;;;;3.53;1.23;;;20.70;69.20;;;;;;10413724;28;20221;-34
2021/07/29 10:28:20;;;;;;;3.63;1.00;;;20.70;69.60;;;;;;10374967;28;20237;-33
2021/07/29 10:33:46;;;;;;;4.40;1.30;;;20.70;68.40;;;;;;10369101;28;20229;-33
2021/07/29 10:39:08;;;;;;;3.90;1.33;;;20.70;68.20;;;;;;10368986;28;20300;-35
2021/07/29 10:44:57;;;;;;;3.73;1.40;;;20.70;68.40;;;;;;10387882;28;20201;-35
2021/07/29 10:50:21;;;;;;;4.87;1.00;;;20.70;68.40;;;;;;10368048;28;20602;-37
2021/07/29 10:55:45;;;;;;;4.60;1.30;;;20.80;68.50;;;;;;10368109;28;20214;-35
2021/07/29 11:01:07;;;;;;;2.93;1.20;;;20.70;68.50;;;;;;10367569;28;20222;-35
2021/07/29 11:06:36;;;;;;;4.03;1.40;;;20.70;67.10;;;;;;10384965;28;20737;-37
2021/07/29 11:11:59;;;;;;;3.53;1.23;;;20.70;67.50;;;;;;10408365;28;20222;-33
2021/07/29 11:17:22;;;;;;;4.23;1.27;;;20.80;66.40;;;;;;10397328;28;20249;-39
2021/07/29 11:22:48;;;;;;;4.73;1.60;;;20.70;67.00;;;;;;10389224;28;20228;-35
2021/07/29 11:28:13;;;;;;;4.67;1.27;;;20.80;66.60;;;;;;10405477;28;20197;-38
2021/07/29 11:33:36;;;;;;;2.10;1.00;;;20.80;67.30;;;;;;10387970;28;20581;-34
2021/07/29 11:39:01;;;;;;;4.57;1.37;;;20.80;67.90;;;;;;10403679;28;20218;-33
2021/07/29 11:44:24;;;;;;;4.07;1.40;;;20.80;67.60;;;;;;10412632;28;20205;-37
2021/07/29 11:49:47;;;;;;;7.13;1.33;;;20.80;66.10;;;;;;10437911;23;20711;-24
2021/07/29 11:55:14;;;;;;;2.37;1.07;;;20.80;65.90;;;;;;10444829;28;20224;-23
2021/07/29 12:00:36;;;;;;;4.77;1.27;;;20.80;67.00;;;;;;10452027;28;20217;-25
2021/07/29 12:06:00;;;;;;;4.63;1.53;;;20.80;67.60;;;;;;10452751;28;20200;-23
2021/07/29 12:11:30;;;;;;;1.67;1.13;;;20.80;67.80;;;;;;10451473;28;20235;-23
2021/07/29 12:16:53;;;;;;;4.17;1.13;;;20.80;67.80;;;;;;10448343;28;20608;-21
2021/07/29 12:22:23;;;;;;;4.93;1.20;;;20.80;67.60;;;;;;10452565;28;20554;-24
2021/07/29 12:27:47;;;;;;;2.93;1.50;;;20.80;67.90;;;;;;10468282;28;20189;-24
2021/07/29 12:33:14;;;;;;;3.97;1.70;;;20.80;68.10;;;;;;10484531;28;20663;-22
2021/07/29 12:38:38;;;;;;;4.43;1.20;;;20.80;68.30;;;;;;10451756;28;20201;-22
2021/07/29 12:44:14;;;;;;;3.33;1.17;;;20.80;68.20;;;;;;10450792;28;20197;-23
2021/07/29 12:49:40;;;;;;;4.47;1.30;;;20.80;68.40;;;;;;10450501;28;20228;-24
2021/07/29 12:55:07;;;;;;;10.60;1.70;;;20.80;67.50;;;;;;10450866;28;20298;-23
2021/07/29 13:00:30;;;;;;;5.90;1.60;;;20.80;67.30;;;;;;10451312;28;20224;-23
2021/07/29 13:05:52;;;;;;;8.00;1.67;;;20.80;66.50;;;;;;10451207;28;20698;-22
2021/07/29 13:11:15;;;;;;;5.83;1.47;;;20.80;67.20;;;;;;10457167;28;20221;-23
2021/07/29 13:16:38;;;;;;;4.53;1.77;;;20.70;64.80;;;;;;10472728;28;20355;-24
2021/07/29 13:22:03;;;;;;;3.97;1.17;;;20.80;63.70;;;;;;10450491;28;20707;-25
2021/07/29 13:27:25;;;;;;;5.47;1.43;;;20.70;63.30;;;;;;10450498;28;20198;-24
2021/07/29 13:32:48;;;;;;;7.30;1.70;;;20.70;63.70;;;;;;10459507;28;20224;-24
2021/07/29 13:38:10;;;;;;;4.80;1.33;;;20.70;66.30;;;;;;10450312;28;21026;-24
2021/07/29 13:43:32;;;;;;;2.43;1.40;;;20.70;67.40;;;;;;10458451;28;20189;-24
2021/07/29 13:48:57;;;;;;;3.83;1.30;;;20.70;67.80;;;;;;10458146;28;20248;-23
2021/07/29 13:54:19;;;;;;;3.13;1.37;;;20.70;68.10;;;;;;10458465;28;20298;-24
2021/07/29 13:59:41;;;;;;;4.10;1.13;;;20.70;68.50;;;;;;10457372;28;20216;-24
2021/07/29 14:05:06;;;;;;;2.83;1.37;;;20.70;69.00;;;;;;10457708;28;20572;-23
2021/07/29 14:10:29;;;;;;;4.43;1.30;;;20.70;69.30;;;;;;10458086;28;20855;-23
2021/07/29 14:15:52;;;;;;;8.97;1.87;;;20.70;69.70;;;;;;10457721;28;20235;-23
2021/07/29 14:21:26;;;;;;;7.37;1.47;;;20.70;69.90;;;;;;10445873;28;20223;-24
2021/07/29 14:26:48;;;;;;;3.07;1.20;;;20.70;70.20;;;;;;10450123;28;20197;-23
2021/07/29 14:32:10;;;;;;;8.00;1.43;;;20.70;70.50;;;;;;10452571;28;20246;-25
2021/07/29 14:37:33;;;;;;;5.00;1.17;;;20.70;70.60;;;;;;10455993;28;20181;-23
2021/07/29 14:42:56;;;;;;;1.53;1.10;;;20.70;70.90;;;;;;10475770;28;20594;-23
2021/07/29 14:53:59;;;;;;;2.97;1.37;;;20.70;71.10;;;;;;10467597;28;20626;-23
2021/07/29 16:07:33;;;;;;;7.10;1.40;;;20.70;72.60;;;;;;10451968;28;20189;-24
2021/07/29 16:12:57;;;;;;;3.80;1.60;;;20.70;72.70;;;;;;10452516;28;20208;-24
2021/07/29 16:18:21;;;;;;;2.93;1.50;;;20.60;72.60;;;;;;10453812;28;20185;-23
2021/07/29 16:23:43;;;;;;;3.67;1.23;;;20.70;72.70;;;;;;10453118;28;20201;-24
2021/07/29 16:29:05;;;;;;;2.37;1.30;;;20.60;72.70;;;;;;10452026;28;20220;-24
2021/07/29 16:34:32;;;;;;;3.67;1.10;;;20.60;72.70;;;;;;10451554;28;20224;-23
2021/07/29 16:39:54;;;;;;;2.40;1.20;;;20.70;72.90;;;;;;10451474;28;20216;-24
2021/07/29 16:45:16;;;;;;;3.30;1.20;;;20.60;72.80;;;;;;10451701;28;20200;-21
2021/07/29 16:50:39;;;;;;;4.90;1.00;;;20.70;72.80;;;;;;10447730;28;20723;-24
2021/07/29 16:56:02;;;;;;;2.40;1.30;;;20.70;73.30;;;;;;10451406;28;20564;-23
2021/07/29 17:01:24;;;;;;;5.37;2.20;;;20.60;72.50;;;;;;10452178;28;20218;-22
2021/07/29 17:06:47;;;;;;;6.43;2.67;;;20.60;72.60;;;;;;10447134;28;20203;-23
2021/07/29 17:12:11;;;;;;;6.87;3.60;;;20.70;72.70;;;;;;10446058;28;20304;-24
2021/07/29 17:17:33;;;;;;;9.00;3.90;;;20.60;72.50;;;;;;10447286;28;20229;-23
2021/07/29 17:22:56;;;;;;;12.27;4.70;;;20.60;72.30;;;;;;10468788;28;20223;-23
2021/07/29 17:28:18;;;;;;;11.73;4.93;;;20.70;72.50;;;;;;10488157;28;20192;-24
2021/07/29 17:33:42;;;;;;;9.53;4.20;;;20.70;72.50;;;;;;10488177;28;20213;-24
2021/07/29 17:39:06;;;;;;;9.07;4.57;;;20.60;72.50;;;;;;10487543;28;20258;-23
2021/07/29 17:44:32;;;;;;;14.27;5.03;;;20.70;72.50;;;;;;10486177;28;20200;-24
2021/07/29 17:49:54;;;;;;;10.63;4.63;;;20.60;72.70;;;;;;10458825;28;20550;-23
2021/07/29 17:55:18;;;;;;;8.70;3.83;;;20.70;72.90;;;;;;10453264;28;20715;-23
2021/07/29 18:00:40;;;;;;;10.93;3.70;;;20.60;72.00;;;;;;10446154;28;20216;-25
2021/07/29 18:06:04;;;;;;;10.10;3.03;;;20.60;71.60;;;;;;10447228;28;20193;-23
2021/07/29 18:11:27;;;;;;;6.40;2.57;;;20.70;71.30;;;;;;10446337;28;20295;-22
2021/07/29 18:16:49;;;;;;;5.57;2.50;;;20.70;70.20;;;;;;10579902;22;20236;-30
2021/07/29 18:22:12;;;;;;;5.03;2.20;;;20.70;68.80;;;;;;10447034;28;20201;-29
2021/07/29 18:27:37;;;;;;;6.00;2.03;;;20.60;66.70;;;;;;10470517;28;20260;-29
2021/07/29 18:33:00;;;;;;;4.17;1.57;;;20.70;67.00;;;;;;10470114;28;20185;-29
2021/07/29 18:38:22;;;;;;;4.47;1.93;;;20.70;66.30;;;;;;10467750;28;20306;-29
2021/07/29 18:43:46;;;;;;;5.30;1.60;;;20.70;65.70;;;;;;10472548;28;20927;-29
2021/07/29 18:49:08;;;;;;;5.13;1.90;;;20.70;66.10;;;;;;10446263;28;20217;-30
2021/07/29 18:54:32;;;;;;;8.20;1.97;;;20.60;66.80;;;;;;10426195;28;20217;-31
2021/07/29 18:59:55;;;;;;;6.87;1.73;;;20.70;65.90;;;;;;10450227;28;20197;-30
2021/07/29 19:05:18;;;;;;;5.57;1.90;;;20.70;65.70;;;;;;10458658;28;20217;-30
2021/07/29 19:10:40;;;;;;;10.23;2.03;;;20.70;66.10;;;;;;10467423;28;20204;-30
2021/07/29 19:16:03;;;;;;;7.33;2.10;;;20.70;66.40;;;;;;10467009;28;20623;-30
2021/07/29 19:21:25;;;;;;;4.17;1.60;;;20.70;66.20;;;;;;10464076;28;20247;-31
2021/07/29 19:26:47;;;;;;;22.87;2.23;;;20.70;66.10;;;;;;10464989;28;20221;-31
2021/07/29 19:32:11;;;;;;;13.33;2.53;;;20.70;66.10;;;;;;10466644;28;20197;-30
2021/07/29 19:37:33;;;;;;;7.70;2.20;;;20.70;65.40;;;;;;10469028;28;20219;-29
2021/07/29 19:42:55;;;;;;;5.83;2.17;;;20.60;66.00;;;;;;10482237;28;20564;-29
2021/07/29 19:48:18;;;;;;;7.10;2.37;;;20.70;66.70;;;;;;10475478;28;20220;-29
2021/07/29 19:53:41;;;;;;;4.60;2.33;;;20.70;67.10;;;;;;10466476;28;20197;-30
2021/07/29 19:59:03;;;;;;;11.00;2.50;;;20.60;67.00;;;;;;10476165;28;20208;-29
2021/07/29 20:04:26;;;;;;;4.30;2.37;;;20.60;66.80;;;;;;10475971;28;20200;-31
2021/07/29 20:09:49;;;;;;;5.83;1.70;;;20.60;67.10;;;;;;10482176;28;20201;-30
2021/07/29 20:15:11;;;;;;;7.67;2.00;;;20.60;67.30;;;;;;10483675;28;20220;-29
2021/07/29 20:20:35;;;;;;;5.53;2.23;;;20.60;67.20;;;;;;10482871;28;20189;-29
2021/07/29 20:25:57;;;;;;;4.63;1.90;;;20.60;67.30;;;;;;10486273;28;20655;-28
2021/07/29 20:31:19;;;;;;;4.20;1.70;;;20.60;67.40;;;;;;10479525;28;20570;-29
2021/07/29 20:36:43;;;;;;;3.43;1.70;;;20.60;67.50;;;;;;10482093;28;20232;-29
2021/07/29 20:42:05;;;;;;;3.60;1.73;;;20.60;67.50;;;;;;10482573;28;20199;-28
2021/07/29 20:47:27;;;;;;;3.17;1.50;;;20.60;67.50;;;;;;10484529;28;20205;-28
2021/07/29 20:52:51;;;;;;;3.63;1.70;;;20.60;67.70;;;;;;10478697;28;20247;-29
2021/07/29 20:58:13;;;;;;;5.50;1.60;;;20.60;67.80;;;;;;10483572;28;20290;-30
2021/07/29 21:03:35;;;;;;;5.17;1.90;;;20.60;67.80;;;;;;10476658;28;20203;-31
2021/07/29 21:08:58;;;;;;;5.23;1.83;;;20.60;67.80;;;;;;10433285;28;20201;-30
2021/07/29 21:14:20;;;;;;;3.60;1.70;;;20.60;67.90;;;;;;10420775;28;20233;-30
2021/07/29 21:19:43;;;;;;;3.27;1.70;;;20.50;67.80;;;;;;10442219;28;20683;-30
2021/07/29 21:25:08;;;;;;;4.10;2.00;;;20.60;67.80;;;;;;10420040;28;20709;-30
2021/07/29 21:30:30;;;;;;;5.80;1.97;;;20.50;68.00;;;;;;10420111;28;20197;-29
2021/07/29 21:35:52;;;;;;;3.37;1.73;;;20.50;68.10;;;;;;10421462;28;20217;-29
2021/07/29 21:41:15;;;;;;;5.83;2.03;;;20.50;68.00;;;;;;10447815;28;20193;-29
2021/07/29 21:46:38;;;;;;;5.53;2.40;;;20.50;68.00;;;;;;10456970;28;20205;-31
2021/07/29 21:52:00;;;;;;;4.87;2.10;;;20.50;68.00;;;;;;10464341;28;20205;-30
2021/07/29 21:57:23;;;;;;;5.37;2.10;;;20.50;68.00;;;;;;10467862;28;20229;-30
2021/07/29 22:02:45;;;;;;;5.90;2.40;;;20.50;68.00;;;;;;10465207;28;20189;-30
2021/07/29 22:08:07;;;;;;;5.30;2.10;;;20.50;68.00;;;;;;10499595;28;20699;-30
2021/07/29 22:13:31;;;;;;;6.07;1.90;;;20.50;67.90;;;;;;10508974;28;20192;-30
2021/07/29 22:18:53;;;;;;;4.53;2.33;;;20.50;67.80;;;;;;10506847;28;20219;-30
2021/07/29 22:24:15;;;;;;;3.87;1.80;;;20.50;68.00;;;;;;10471401;28;20309;-30
2021/07/29 22:29:38;;;;;;;6.87;2.53;;;20.50;67.90;;;;;;10465191;28;20189;-30
2021/07/29 22:35:00;;;;;;;7.77;2.23;;;20.50;68.10;;;;;;10468196;28;20208;-29
2021/07/29 22:40:23;;;;;;;5.83;2.13;;;20.50;67.90;;;;;;10511880;28;20196;-29
2021/07/29 22:45:46;;;;;;;6.27;2.47;;;20.50;68.00;;;;;;10509523;28;20212;-28
2021/07/29 22:51:09;;;;;;;5.47;2.17;;;20.50;68.00;;;;;;10508999;28;20196;-28
2021/07/29 22:56:31;;;;;;;5.83;2.57;;;20.50;67.90;;;;;;10489065;28;20228;-29
2021/07/29 23:01:55;;;;;;;5.63;1.93;;;20.50;67.90;;;;;;10450406;28;20201;-28
2021/07/29 23:07:17;;;;;;;3.67;1.93;;;20.50;68.00;;;;;;10446684;28;20255;-29
2021/07/29 23:12:39;;;;;;;4.67;2.03;;;20.40;67.90;;;;;;10468137;28;20622;-29
2021/07/29 23:18:02;;;;;;;5.83;1.83;;;20.50;67.90;;;;;;10468898;28;20231;-29
2021/07/29 23:23:27;;;;;;;7.07;2.60;;;20.40;67.80;;;;;;10467616;28;20193;-30
2021/07/29 23:28:49;;;;;;;5.63;1.90;;;20.40;67.80;;;;;;10465965;28;20231;-29
2021/07/29 23:34:13;;;;;;;5.53;2.27;;;20.50;67.80;;;;;;10467379;28;20194;-30
2021/07/29 23:39:35;;;;;;;4.13;2.20;;;20.50;67.80;;;;;;10425867;28;20193;-29
2021/07/29 23:44:58;;;;;;;4.83;2.20;;;20.40;67.70;;;;;;10478984;28;20220;-30
2021/07/29 23:50:22;;;;;;;3.77;2.20;;;20.40;67.50;;;;;;10508088;28;20246;-30
2021/07/29 23:55:44;;;;;;;7.63;2.33;;;20.40;67.40;;;;;;10496960;28;20221;-29
